Архив погоды в Усть-Мае

Метеограмма Усть-Мая
Вторник, 25 Июня
Время местн. Темп Ветер Видим Явления Облачность нижн/средн/верх Атм. давл. Влжн Точка росы ВНГО R Сост. почвы Tg s
Напр Скр Прв ур.ст ур.м изм
03:00 +13.1° Ю 3 - более 50 км - преимущественно облачно 743 759 +0.5 81% +10° 1.5 км - - - -
00:00 +14.3° Ю-В 2 - 50 км - облачно 743 758 +0.3 82% +11.2° 1.5 км - - - -
Понедельник, 24 Июня
Время местн. Темп Ветер Видим Явления Облачность нижн/средн/верх Атм. давл. Влжн Точка росы ВНГО R Сост. почвы Tg s
Напр Скр Прв ур.ст ур.м изм
21:00 +15.6° Ю 4 - более 50 км - облачно 743 758 +0.5 74% +11° 1.5 км - - - -
18:00 +16.9° Ю 2 - 50 км - облачно 742 757 +0.8 60% +9° 1.5 км 0 - - -
15:00 +19.2° Ю,Ю-З 5 11 более 50 км - облачно 741 756 +0.5 60% +11.3° 1.5 км - - - -
12:00 +20.4° Ю,Ю-В 6 10 более 50 км - облачно с прояснениями 741 756 0 59% +12.1° 1.5 км - - - -
09:00 +18.1° Ю-В 4 - 50 км - переменная облачность 741 756 +0.1 62% +10.8° 1.5 км - - - -
06:00 +15.6° Ю,Ю-В 6 11 более 50 км - переменная облачность 741 756 +0.4 64% +8.8° более 2.5 км 0 Сухая (без трещин) +12° -
03:00 +15.4° Ю 6 - 50 км - переменная облачность 740 755 +0.6 66% +9° 1.5 км - - - -
00:00 +17.3° В,Ю-В 2 - 50 км - переменная облачность 740 755 -0.1 66% +10.8° 1.5 км - - - -
Воскресенье, 23 Июня
Время местн. Темп Ветер Видим Явления Облачность нижн/средн/верх Атм. давл. Влжн Точка росы ВНГО R Сост. почвы Tg s
Напр Скр Прв ур.ст ур.м изм
21:00 +19.2° Ю 1 - более 50 км - переменная облачность 740 755 +0.5 54% +9.6° более 2.5 км - - - -
18:00 +23.3° Ю-В 4 - 50 км - переменная облачность 739 754 -0.5 41% +9.4° 1.5 км 0 - - -
15:00 +22.7° Ю,Ю-В 6 10 50 км - переменная облачность 740 754 -1.4 43% +9.6° 1.5 км - - - -
12:00 +20.8° Ю 6 - 50 км - переменная облачность 741 756 -1.1 49% +9.7° 1.5 км - - - -
09:00 +17.6° Ю 6 - 50 км - переменная облачность 742 757 -0.5 58% +9.2° более 2.5 км - - - -
06:00 +14° Ю,Ю-В 5 10 более 50 км - незначительная облачность 743 758 -0.2 66% +7.8° более 2.5 км 0 Сухая (без трещин) +9° -
03:00 +12.1° В 2 - 50 км - переменная облачность 743 758 0 79% +8.5° - - - - -
00:00 +15° Ю-В 2 10 более 50 км - переменная облачность 743 758 +0.2 63% +8° более 2.5 км - - - -
Суббота, 22 Июня
Время местн. Темп Ветер Видим Явления Облачность нижн/средн/верх Атм. давл. Влжн Точка росы ВНГО R Сост. почвы Tg s
Напр Скр Прв ур.ст ур.м изм
21:00 +19.2° Ю 5 - 50 км - облачно с прояснениями 743 758 +0.8 60% +11.2° 1.5 км - - - -
18:00 +21.9° Ю,Ю-З 3 - 50 км - облачно с прояснениями 742 757 0 62% +14.4° 1 км 0 - - -
15:00 +21.9° В,Ю-В 2 - более 50 км - облачно с прояснениями 742 757 -0.8 62% +14.2° 1 км - - - -
12:00 +20.3° В 2 - 50 км - переменная облачность 743 758 -0.2 67% +13.9° 1 км - - - -
09:00 +18.6° В 1 - более 50 км - переменная облачность 743 758 +0.3 73% +13.7° 1.5 км - - - -
06:00 +13.8° Ю-В 1 - 10 км видимость ухудшена из-за дыма облачно с прояснениями 743 758 +0.8 93% +12.7° 1.5 км 1 Влажная (без луж) - -
03:00 +11.7° С,С-В 1 - более 50 км - преимущественно облачно 742 757 +0.2 95% +10.9° 1.5 км - - - -
00:00 +12.5° С 1 - более 50 км - переменная облачность 742 757 +0.5 95% +11.8° 1.5 км - - - -